sensor_id;sensor_type;location;lat;lon;timestamp;P1;durP1;ratioP1;P2;durP2;ratioP2
67528;SDS011;54366;51.980;5.856;2022-08-18T00:01:19;15.77;;;14.38;;
67528;SDS011;54366;51.980;5.856;2022-08-18T00:03:49;15.35;;;13.95;;
67528;SDS011;54366;51.980;5.856;2022-08-18T00:06:16;15.63;;;14.23;;
67528;SDS011;54366;51.980;5.856;2022-08-18T00:08:43;17.02;;;15.45;;
67528;SDS011;54366;51.980;5.856;2022-08-18T00:11:09;18.85;;;17.10;;
67528;SDS011;54366;51.980;5.856;2022-08-18T00:13:36;16.60;;;15.10;;
67528;SDS011;54366;51.980;5.856;2022-08-18T00:16:02;20.65;;;18.73;;
67528;SDS011;54366;51.980;5.856;2022-08-18T00:18:28;24.92;;;22.63;;
67528;SDS011;54366;51.980;5.856;2022-08-18T00:20:55;24.23;;;21.83;;
67528;SDS011;54366;51.980;5.856;2022-08-18T00:23:21;17.77;;;16.08;;
67528;SDS011;54366;51.980;5.856;2022-08-18T00:25:48;15.15;;;13.85;;
67528;SDS011;54366;51.980;5.856;2022-08-18T00:28:14;15.52;;;14.13;;
67528;SDS011;54366;51.980;5.856;2022-08-18T00:30:40;16.88;;;15.38;;
67528;SDS011;54366;51.980;5.856;2022-08-18T00:33:07;19.73;;;17.95;;
67528;SDS011;54366;51.980;5.856;2022-08-18T00:35:36;23.30;;;20.98;;
67528;SDS011;54366;51.980;5.856;2022-08-18T00:38:04;22.08;;;19.98;;
67528;SDS011;54366;51.980;5.856;2022-08-18T00:40:43;20.67;;;18.75;;
67528;SDS011;54366;51.980;5.856;2022-08-18T00:43:14;19.20;;;17.50;;
67528;SDS011;54366;51.980;5.856;2022-08-18T00:45:44;24.23;;;21.83;;
67528;SDS011;54366;51.980;5.856;2022-08-18T00:48:11;17.88;;;16.27;;
67528;SDS011;54366;51.980;5.856;2022-08-18T00:50:40;15.70;;;14.30;;
67528;SDS011;54366;51.980;5.856;2022-08-18T00:53:20;16.77;;;15.23;;
67528;SDS011;54366;51.980;5.856;2022-08-18T00:55:59;13.10;;;11.88;;
67528;SDS011;54366;51.980;5.856;2022-08-18T00:58:37;17.70;;;16.10;;
67528;SDS011;54366;51.980;5.856;2022-08-18T01:01:17;19.70;;;17.90;;
67528;SDS011;54366;51.980;5.856;2022-08-18T01:03:47;19.55;;;17.55;;
67528;SDS011;54366;51.980;5.856;2022-08-18T01:06:27;19.38;;;17.67;;
67528;SDS011;54366;51.980;5.856;2022-08-18T01:08:59;17.48;;;15.77;;
67528;SDS011;54366;51.980;5.856;2022-08-18T01:11:26;14.27;;;12.98;;
67528;SDS011;54366;51.980;5.856;2022-08-18T01:13:53;13.48;;;12.27;;
67528;SDS011;54366;51.980;5.856;2022-08-18T01:16:19;12.43;;;11.35;;
67528;SDS011;54366;51.980;5.856;2022-08-18T01:19:05;11.52;;;10.43;;
67528;SDS011;54366;51.980;5.856;2022-08-18T01:21:51;14.15;;;12.75;;
67528;SDS011;54366;51.980;5.856;2022-08-18T01:24:26;12.70;;;11.60;;
67528;SDS011;54366;51.980;5.856;2022-08-18T01:27:13;17.70;;;15.75;;
67528;SDS011;54366;51.980;5.856;2022-08-18T01:29:46;13.45;;;12.15;;
67528;SDS011;54366;51.980;5.856;2022-08-18T01:32:18;15.10;;;13.70;;
67528;SDS011;54366;51.980;5.856;2022-08-18T01:34:47;16.55;;;14.77;;
67528;SDS011;54366;51.980;5.856;2022-08-18T01:37:16;16.17;;;14.48;;
67528;SDS011;54366;51.980;5.856;2022-08-18T01:39:45;14.40;;;12.90;;
67528;SDS011;54366;51.980;5.856;2022-08-18T01:42:13;12.85;;;11.75;;
67528;SDS011;54366;51.980;5.856;2022-08-18T01:44:42;13.43;;;12.13;;
67528;SDS011;54366;51.980;5.856;2022-08-18T01:47:10;12.30;;;11.27;;
67528;SDS011;54366;51.980;5.856;2022-08-18T01:49:37;12.27;;;11.18;;
67528;SDS011;54366;51.980;5.856;2022-08-18T01:52:08;10.38;;;9.38;;
67528;SDS011;54366;51.980;5.856;2022-08-18T01:54:36;12.10;;;11.00;;
67528;SDS011;54366;51.980;5.856;2022-08-18T01:57:05;9.65;;;8.85;;
67528;SDS011;54366;51.980;5.856;2022-08-18T01:59:31;9.35;;;8.45;;
67528;SDS011;54366;51.980;5.856;2022-08-18T02:01:59;9.02;;;8.32;;
67528;SDS011;54366;51.980;5.856;2022-08-18T02:04:27;7.70;;;7.03;;
67528;SDS011;54366;51.980;5.856;2022-08-18T02:06:58;7.53;;;6.93;;
67528;SDS011;54366;51.980;5.856;2022-08-18T02:09:26;9.07;;;8.32;;
67528;SDS011;54366;51.980;5.856;2022-08-18T02:11:53;10.25;;;9.27;;
67528;SDS011;54366;51.980;5.856;2022-08-18T02:14:19;10.32;;;9.52;;
67528;SDS011;54366;51.980;5.856;2022-08-18T02:16:46;9.02;;;8.23;;
67528;SDS011;54366;51.980;5.856;2022-08-18T02:19:12;11.48;;;10.45;;
67528;SDS011;54366;51.980;5.856;2022-08-18T02:21:39;10.90;;;9.90;;
67528;SDS011;54366;51.980;5.856;2022-08-18T02:24:05;9.57;;;8.77;;
67528;SDS011;54366;51.980;5.856;2022-08-18T02:26:31;11.90;;;10.85;;
67528;SDS011;54366;51.980;5.856;2022-08-18T02:28:57;9.40;;;8.70;;
67528;SDS011;54366;51.980;5.856;2022-08-18T02:31:24;8.90;;;8.10;;
67528;SDS011;54366;51.980;5.856;2022-08-18T02:33:50;9.02;;;8.25;;
67528;SDS011;54366;51.980;5.856;2022-08-18T02:36:17;5.70;;;5.20;;
67528;SDS011;54366;51.980;5.856;2022-08-18T02:38:44;10.40;;;9.45;;
67528;SDS011;54366;51.980;5.856;2022-08-18T02:41:10;10.38;;;9.40;;
67528;SDS011;54366;51.980;5.856;2022-08-18T02:43:40;9.00;;;8.20;;
67528;SDS011;54366;51.980;5.856;2022-08-18T02:46:07;10.68;;;9.68;;
67528;SDS011;54366;51.980;5.856;2022-08-18T02:48:34;11.70;;;10.70;;
67528;SDS011;54366;51.980;5.856;2022-08-18T02:51:01;12.52;;;11.32;;
67528;SDS011;54366;51.980;5.856;2022-08-18T02:53:30;11.18;;;10.18;;
67528;SDS011;54366;51.980;5.856;2022-08-18T02:56:10;9.73;;;8.82;;
67528;SDS011;54366;51.980;5.856;2022-08-18T02:58:44;9.98;;;9.07;;
67528;SDS011;54366;51.980;5.856;2022-08-18T03:01:10;9.05;;;7.50;;
67528;SDS011;54366;51.980;5.856;2022-08-18T03:03:36;11.30;;;10.30;;
67528;SDS011;54366;51.980;5.856;2022-08-18T03:06:03;7.88;;;7.15;;
67528;SDS011;54366;51.980;5.856;2022-08-18T03:08:30;7.85;;;7.25;;
67528;SDS011;54366;51.980;5.856;2022-08-18T03:10:56;8.57;;;7.78;;
67528;SDS011;54366;51.980;5.856;2022-08-18T03:13:23;7.00;;;6.45;;
67528;SDS011;54366;51.980;5.856;2022-08-18T03:15:50;7.03;;;6.43;;
67528;SDS011;54366;51.980;5.856;2022-08-18T03:18:17;8.10;;;7.40;;
67528;SDS011;54366;51.980;5.856;2022-08-18T03:20:43;7.55;;;6.95;;
67528;SDS011;54366;51.980;5.856;2022-08-18T03:23:10;8.00;;;7.30;;
67528;SDS011;54366;51.980;5.856;2022-08-18T03:25:42;7.03;;;6.45;;
67528;SDS011;54366;51.980;5.856;2022-08-18T03:28:12;5.97;;;5.53;;
67528;SDS011;54366;51.980;5.856;2022-08-18T03:30:40;8.18;;;7.47;;
67528;SDS011;54366;51.980;5.856;2022-08-18T03:33:08;7.43;;;6.82;;
67528;SDS011;54366;51.980;5.856;2022-08-18T03:35:35;7.13;;;6.53;;
67528;SDS011;54366;51.980;5.856;2022-08-18T03:38:02;7.97;;;7.32;;
67528;SDS011;54366;51.980;5.856;2022-08-18T03:40:29;7.90;;;7.15;;
67528;SDS011;54366;51.980;5.856;2022-08-18T03:42:55;7.35;;;6.75;;
67528;SDS011;54366;51.980;5.856;2022-08-18T03:45:22;9.07;;;7.85;;
67528;SDS011;54366;51.980;5.856;2022-08-18T03:47:49;8.13;;;7.40;;
67528;SDS011;54366;51.980;5.856;2022-08-18T03:50:17;6.82;;;6.07;;
67528;SDS011;54366;51.980;5.856;2022-08-18T03:52:45;6.70;;;6.20;;
67528;SDS011;54366;51.980;5.856;2022-08-18T03:55:14;6.50;;;5.90;;
67528;SDS011;54366;51.980;5.856;2022-08-18T03:57:41;7.80;;;7.15;;
67528;SDS011;54366;51.980;5.856;2022-08-18T04:00:09;7.88;;;7.18;;
67528;SDS011;54366;51.980;5.856;2022-08-18T04:02:37;6.28;;;5.70;;
67528;SDS011;54366;51.980;5.856;2022-08-18T04:05:04;4.18;;;3.88;;
67528;SDS011;54366;51.980;5.856;2022-08-18T04:07:31;5.97;;;5.47;;
67528;SDS011;54366;51.980;5.856;2022-08-18T04:09:57;6.40;;;5.80;;
67528;SDS011;54366;51.980;5.856;2022-08-18T04:12:24;9.02;;;7.13;;
67528;SDS011;54366;51.980;5.856;2022-08-18T04:14:50;8.73;;;7.82;;
67528;SDS011;54366;51.980;5.856;2022-08-18T04:17:17;9.63;;;8.82;;
67528;SDS011;54366;51.980;5.856;2022-08-18T04:19:52;8.43;;;7.63;;
67528;SDS011;54366;51.980;5.856;2022-08-18T04:22:20;8.50;;;7.57;;
67528;SDS011;54366;51.980;5.856;2022-08-18T04:24:47;9.40;;;8.50;;
67528;SDS011;54366;51.980;5.856;2022-08-18T04:27:14;11.98;;;10.77;;
67528;SDS011;54366;51.980;5.856;2022-08-18T04:29:41;10.18;;;9.18;;
67528;SDS011;54366;51.980;5.856;2022-08-18T04:32:07;7.65;;;6.80;;
67528;SDS011;54366;51.980;5.856;2022-08-18T04:34:34;7.30;;;6.60;;
67528;SDS011;54366;51.980;5.856;2022-08-18T04:37:00;7.60;;;6.88;;
67528;SDS011;54366;51.980;5.856;2022-08-18T04:39:27;9.13;;;7.40;;
67528;SDS011;54366;51.980;5.856;2022-08-18T04:41:54;7.22;;;6.53;;
67528;SDS011;54366;51.980;5.856;2022-08-18T04:44:21;7.53;;;6.93;;
67528;SDS011;54366;51.980;5.856;2022-08-18T04:46:48;7.90;;;7.20;;
67528;SDS011;54366;51.980;5.856;2022-08-18T04:49:16;8.50;;;7.70;;
67528;SDS011;54366;51.980;5.856;2022-08-18T04:51:45;7.88;;;7.18;;
67528;SDS011;54366;51.980;5.856;2022-08-18T04:54:34;8.90;;;8.10;;
67528;SDS011;54366;51.980;5.856;2022-08-18T04:57:10;7.70;;;7.10;;
67528;SDS011;54366;51.980;5.856;2022-08-18T04:59:38;8.43;;;7.47;;
67528;SDS011;54366;51.980;5.856;2022-08-18T05:02:06;5.93;;;5.43;;
67528;SDS011;54366;51.980;5.856;2022-08-18T05:04:36;11.38;;;10.00;;
67528;SDS011;54366;51.980;5.856;2022-08-18T05:07:09;10.68;;;9.65;;
67528;SDS011;54366;51.980;5.856;2022-08-18T05:09:36;15.32;;;13.65;;
67528;SDS011;54366;51.980;5.856;2022-08-18T05:12:04;14.93;;;13.50;;
67528;SDS011;54366;51.980;5.856;2022-08-18T05:14:31;13.55;;;12.23;;
67528;SDS011;54366;51.980;5.856;2022-08-18T05:16:58;12.70;;;11.43;;
67528;SDS011;54366;51.980;5.856;2022-08-18T05:19:25;13.98;;;12.68;;
67528;SDS011;54366;51.980;5.856;2022-08-18T05:21:55;16.63;;;14.02;;
67528;SDS011;54366;51.980;5.856;2022-08-18T05:24:24;11.35;;;10.25;;
67528;SDS011;54366;51.980;5.856;2022-08-18T05:26:52;12.00;;;10.77;;
67528;SDS011;54366;51.980;5.856;2022-08-18T05:29:20;12.93;;;11.60;;
67528;SDS011;54366;51.980;5.856;2022-08-18T05:31:48;11.10;;;10.00;;
67528;SDS011;54366;51.980;5.856;2022-08-18T05:34:18;13.05;;;11.75;;
67528;SDS011;54366;51.980;5.856;2022-08-18T05:42:03;11.65;;;10.55;;
67528;SDS011;54366;51.980;5.856;2022-08-18T05:44:33;10.05;;;9.00;;
67528;SDS011;54366;51.980;5.856;2022-08-18T05:47:16;9.27;;;8.25;;
67528;SDS011;54366;51.980;5.856;2022-08-18T05:49:49;12.70;;;11.32;;
67528;SDS011;54366;51.980;5.856;2022-08-18T05:54:55;8.80;;;7.90;;
67528;SDS011;54366;51.980;5.856;2022-08-18T05:57:51;8.95;;;8.05;;
67528;SDS011;54366;51.980;5.856;2022-08-18T06:00:24;7.10;;;6.43;;
67528;SDS011;54366;51.980;5.856;2022-08-18T06:07:57;9.32;;;8.25;;
67528;SDS011;54366;51.980;5.856;2022-08-18T06:12:55;9.52;;;7.43;;
67528;SDS011;54366;51.980;5.856;2022-08-18T06:18:21;7.82;;;7.22;;
67528;SDS011;54366;51.980;5.856;2022-08-18T06:32:26;6.97;;;6.03;;
67528;SDS011;54366;51.980;5.856;2022-08-18T06:35:13;6.03;;;5.43;;
67528;SDS011;54366;51.980;5.856;2022-08-18T06:37:54;9.68;;;8.73;;
67528;SDS011;54366;51.980;5.856;2022-08-18T06:40:46;7.28;;;6.47;;
67528;SDS011;54366;51.980;5.856;2022-08-18T06:43:13;9.65;;;7.63;;
67528;SDS011;54366;51.980;5.856;2022-08-18T06:45:42;8.80;;;7.78;;
67528;SDS011;54366;51.980;5.856;2022-08-18T06:50:49;6.75;;;6.15;;
67528;SDS011;54366;51.980;5.856;2022-08-18T06:53:22;5.60;;;5.10;;
67528;SDS011;54366;51.980;5.856;2022-08-18T06:56:44;7.13;;;5.68;;
67528;SDS011;54366;51.980;5.856;2022-08-18T06:59:28;6.35;;;5.75;;
67528;SDS011;54366;51.980;5.856;2022-08-18T07:07:31;7.75;;;7.05;;
67528;SDS011;54366;51.980;5.856;2022-08-18T07:10:05;9.23;;;6.90;;
67528;SDS011;54366;51.980;5.856;2022-08-18T07:12:41;6.50;;;5.85;;
67528;SDS011;54366;51.980;5.856;2022-08-18T07:15:07;9.32;;;7.70;;
67528;SDS011;54366;51.980;5.856;2022-08-18T07:17:37;7.22;;;6.53;;
67528;SDS011;54366;51.980;5.856;2022-08-18T07:22:55;6.45;;;5.80;;
67528;SDS011;54366;51.980;5.856;2022-08-18T07:25:28;6.55;;;5.93;;
67528;SDS011;54366;51.980;5.856;2022-08-18T07:28:28;6.60;;;5.88;;
67528;SDS011;54366;51.980;5.856;2022-08-18T07:34:00;5.72;;;5.20;;
67528;SDS011;54366;51.980;5.856;2022-08-18T07:36:37;6.32;;;4.60;;
67528;SDS011;54366;51.980;5.856;2022-08-18T07:39:25;5.70;;;5.07;;
67528;SDS011;54366;51.980;5.856;2022-08-18T07:53:17;5.85;;;4.55;;
67528;SDS011;54366;51.980;5.856;2022-08-18T07:56:06;5.05;;;4.32;;
67528;SDS011;54366;51.980;5.856;2022-08-18T07:58:50;5.18;;;3.60;;
67528;SDS011;54366;51.980;5.856;2022-08-18T08:01:27;4.70;;;4.10;;
67528;SDS011;54366;51.980;5.856;2022-08-18T08:04:09;6.68;;;6.07;;
67528;SDS011;54366;51.980;5.856;2022-08-18T08:06:47;6.32;;;4.80;;
67528;SDS011;54366;51.980;5.856;2022-08-18T08:31:10;6.07;;;5.05;;
67528;SDS011;54366;51.980;5.856;2022-08-18T08:34:15;6.00;;;4.10;;
67528;SDS011;54366;51.980;5.856;2022-08-18T08:37:05;4.30;;;3.90;;
67528;SDS011;54366;51.980;5.856;2022-08-18T08:39:52;3.78;;;3.47;;
67528;SDS011;54366;51.980;5.856;2022-08-18T08:50:57;4.10;;;3.70;;
67528;SDS011;54366;51.980;5.856;2022-08-18T08:53:26;4.15;;;3.20;;
67528;SDS011;54366;51.980;5.856;2022-08-18T08:56:01;3.20;;;2.88;;
67528;SDS011;54366;51.980;5.856;2022-08-18T08:58:33;4.50;;;3.25;;
67528;SDS011;54366;51.980;5.856;2022-08-18T09:01:09;3.78;;;3.10;;
67528;SDS011;54366;51.980;5.856;2022-08-18T09:07:03;2.75;;;2.55;;
67528;SDS011;54366;51.980;5.856;2022-08-18T09:20:47;3.40;;;3.10;;
67528;SDS011;54366;51.980;5.856;2022-08-18T09:23:39;3.35;;;3.05;;
67528;SDS011;54366;51.980;5.856;2022-08-18T09:26:21;2.85;;;2.50;;
67528;SDS011;54366;51.980;5.856;2022-08-18T09:28:55;2.88;;;2.60;;
67528;SDS011;54366;51.980;5.856;2022-08-18T09:31:37;3.42;;;3.00;;
67528;SDS011;54366;51.980;5.856;2022-08-18T09:34:12;2.65;;;2.45;;
67528;SDS011;54366;51.980;5.856;2022-08-18T09:39:35;2.80;;;2.50;;
67528;SDS011;54366;51.980;5.856;2022-08-18T09:42:33;2.88;;;2.67;;
67528;SDS011;54366;51.980;5.856;2022-08-18T09:45:08;2.85;;;2.60;;
67528;SDS011;54366;51.980;5.856;2022-08-18T09:52:55;2.97;;;2.78;;
67528;SDS011;54366;51.980;5.856;2022-08-18T10:00:40;2.92;;;2.70;;
67528;SDS011;54366;51.980;5.856;2022-08-18T10:03:11;3.58;;;2.90;;
67528;SDS011;54366;51.980;5.856;2022-08-18T10:05:54;2.90;;;2.50;;
67528;SDS011;54366;51.980;5.856;2022-08-18T10:08:52;2.53;;;2.33;;
67528;SDS011;54366;51.980;5.856;2022-08-18T10:11:36;2.78;;;2.33;;
67528;SDS011;54366;51.980;5.856;2022-08-18T10:14:32;2.63;;;2.40;;
67528;SDS011;54366;51.980;5.856;2022-08-18T10:17:13;2.50;;;2.30;;
67528;SDS011;54366;51.980;5.856;2022-08-18T10:20:04;2.42;;;2.22;;
67528;SDS011;54366;51.980;5.856;2022-08-18T10:22:51;2.65;;;2.45;;
67528;SDS011;54366;51.980;5.856;2022-08-18T10:28:00;2.17;;;2.05;;
67528;SDS011;54366;51.980;5.856;2022-08-18T10:32:59;3.15;;;2.50;;
67528;SDS011;54366;51.980;5.856;2022-08-18T10:38:02;3.33;;;2.70;;
67528;SDS011;54366;51.980;5.856;2022-08-18T10:40:37;2.88;;;2.67;;
67528;SDS011;54366;51.980;5.856;2022-08-18T10:43:09;3.63;;;2.50;;
67528;SDS011;54366;51.980;5.856;2022-08-18T10:45:45;3.05;;;2.78;;
67528;SDS011;54366;51.980;5.856;2022-08-18T10:48:18;2.63;;;2.40;;
67528;SDS011;54366;51.980;5.856;2022-08-18T10:53:16;3.22;;;2.60;;
67528;SDS011;54366;51.980;5.856;2022-08-18T10:56:08;2.80;;;2.60;;
67528;SDS011;54366;51.980;5.856;2022-08-18T11:06:54;3.08;;;2.88;;
67528;SDS011;54366;51.980;5.856;2022-08-18T11:09:29;2.97;;;2.78;;
67528;SDS011;54366;51.980;5.856;2022-08-18T11:11:57;2.95;;;2.75;;
67528;SDS011;54366;51.980;5.856;2022-08-18T11:19:23;3.22;;;2.90;;
67528;SDS011;54366;51.980;5.856;2022-08-18T11:21:50;3.05;;;2.58;;
67528;SDS011;54366;51.980;5.856;2022-08-18T11:24:21;2.55;;;2.42;;
67528;SDS011;54366;51.980;5.856;2022-08-18T11:27:04;2.72;;;2.53;;
67528;SDS011;54366;51.980;5.856;2022-08-18T11:29:42;2.83;;;2.60;;
67528;SDS011;54366;51.980;5.856;2022-08-18T11:34:45;3.03;;;2.72;;
67528;SDS011;54366;51.980;5.856;2022-08-18T11:37:34;2.58;;;2.40;;
67528;SDS011;54366;51.980;5.856;2022-08-18T11:42:56;3.22;;;2.80;;
67528;SDS011;54366;51.980;5.856;2022-08-18T11:45:24;3.35;;;2.95;;
67528;SDS011;54366;51.980;5.856;2022-08-18T12:07:01;3.40;;;3.10;;
67528;SDS011;54366;51.980;5.856;2022-08-18T12:09:35;3.03;;;2.83;;
67528;SDS011;54366;51.980;5.856;2022-08-18T12:12:17;2.80;;;2.60;;
67528;SDS011;54366;51.980;5.856;2022-08-18T12:14:59;4.25;;;3.03;;
67528;SDS011;54366;51.980;5.856;2022-08-18T12:17:39;3.90;;;3.50;;
67528;SDS011;54366;51.980;5.856;2022-08-18T12:20:06;3.60;;;3.30;;
67528;SDS011;54366;51.980;5.856;2022-08-18T12:22:34;3.85;;;3.22;;
67528;SDS011;54366;51.980;5.856;2022-08-18T12:25:03;3.10;;;2.90;;
67528;SDS011;54366;51.980;5.856;2022-08-18T12:27:31;3.40;;;3.10;;
67528;SDS011;54366;51.980;5.856;2022-08-18T12:29:58;4.20;;;3.53;;
67528;SDS011;54366;51.980;5.856;2022-08-18T12:32:29;3.17;;;2.97;;
67528;SDS011;54366;51.980;5.856;2022-08-18T12:34:58;3.80;;;3.50;;
67528;SDS011;54366;51.980;5.856;2022-08-18T12:37:26;3.80;;;3.50;;
67528;SDS011;54366;51.980;5.856;2022-08-18T12:39:54;3.10;;;2.90;;
67528;SDS011;54366;51.980;5.856;2022-08-18T12:42:22;2.92;;;2.70;;
67528;SDS011;54366;51.980;5.856;2022-08-18T12:44:49;3.10;;;2.90;;
67528;SDS011;54366;51.980;5.856;2022-08-18T12:47:23;3.40;;;3.20;;
67528;SDS011;54366;51.980;5.856;2022-08-18T12:49:50;3.85;;;3.28;;
67528;SDS011;54366;51.980;5.856;2022-08-18T12:52:17;4.97;;;2.80;;
67528;SDS011;54366;51.980;5.856;2022-08-18T12:54:44;3.80;;;3.40;;
67528;SDS011;54366;51.980;5.856;2022-08-18T12:57:14;3.92;;;3.50;;
67528;SDS011;54366;51.980;5.856;2022-08-18T12:59:47;3.40;;;3.10;;
67528;SDS011;54366;51.980;5.856;2022-08-18T13:02:14;3.42;;;3.13;;
67528;SDS011;54366;51.980;5.856;2022-08-18T13:04:40;3.97;;;3.67;;
67528;SDS011;54366;51.980;5.856;2022-08-18T13:07:06;3.83;;;3.45;;
67528;SDS011;54366;51.980;5.856;2022-08-18T13:09:33;3.20;;;2.90;;
67528;SDS011;54366;51.980;5.856;2022-08-18T13:12:01;3.13;;;2.83;;
67528;SDS011;54366;51.980;5.856;2022-08-18T13:14:28;3.42;;;3.13;;
67528;SDS011;54366;51.980;5.856;2022-08-18T13:16:54;3.67;;;3.33;;
67528;SDS011;54366;51.980;5.856;2022-08-18T13:19:20;3.33;;;3.05;;
67528;SDS011;54366;51.980;5.856;2022-08-18T13:21:47;3.55;;;3.25;;
67528;SDS011;54366;51.980;5.856;2022-08-18T13:24:13;3.22;;;2.92;;
67528;SDS011;54366;51.980;5.856;2022-08-18T13:26:43;3.40;;;3.10;;
67528;SDS011;54366;51.980;5.856;2022-08-18T13:29:10;3.47;;;3.17;;
67528;SDS011;54366;51.980;5.856;2022-08-18T13:31:36;4.30;;;3.25;;
67528;SDS011;54366;51.980;5.856;2022-08-18T13:34:03;3.63;;;3.17;;
67528;SDS011;54366;51.980;5.856;2022-08-18T13:36:33;3.45;;;3.22;;
67528;SDS011;54366;51.980;5.856;2022-08-18T13:39:13;3.38;;;3.03;;
67528;SDS011;54366;51.980;5.856;2022-08-18T13:41:41;2.65;;;2.55;;
67528;SDS011;54366;51.980;5.856;2022-08-18T13:44:09;3.25;;;2.95;;
67528;SDS011;54366;51.980;5.856;2022-08-18T13:46:39;3.60;;;3.30;;
67528;SDS011;54366;51.980;5.856;2022-08-18T13:49:11;3.13;;;2.70;;
67528;SDS011;54366;51.980;5.856;2022-08-18T13:51:39;3.80;;;3.50;;
67528;SDS011;54366;51.980;5.856;2022-08-18T13:54:06;3.45;;;3.15;;
67528;SDS011;54366;51.980;5.856;2022-08-18T13:56:32;3.38;;;3.17;;
67528;SDS011;54366;51.980;5.856;2022-08-18T13:58:59;3.28;;;3.08;;
67528;SDS011;54366;51.980;5.856;2022-08-18T14:01:26;4.18;;;3.78;;
67528;SDS011;54366;51.980;5.856;2022-08-18T14:03:52;4.05;;;3.67;;
67528;SDS011;54366;51.980;5.856;2022-08-18T14:06:18;3.45;;;3.20;;
67528;SDS011;54366;51.980;5.856;2022-08-18T14:08:45;3.40;;;3.10;;
67528;SDS011;54366;51.980;5.856;2022-08-18T14:11:11;3.88;;;3.40;;
67528;SDS011;54366;51.980;5.856;2022-08-18T14:13:37;4.85;;;4.30;;
67528;SDS011;54366;51.980;5.856;2022-08-18T14:16:03;3.67;;;3.35;;
67528;SDS011;54366;51.980;5.856;2022-08-18T14:18:30;4.38;;;3.33;;
67528;SDS011;54366;51.980;5.856;2022-08-18T14:20:56;3.60;;;3.25;;
67528;SDS011;54366;51.980;5.856;2022-08-18T14:23:41;3.90;;;3.10;;
67528;SDS011;54366;51.980;5.856;2022-08-18T14:26:26;3.67;;;3.38;;
67528;SDS011;54366;51.980;5.856;2022-08-18T14:29:11;4.22;;;3.50;;
67528;SDS011;54366;51.980;5.856;2022-08-18T14:31:38;3.97;;;3.42;;
67528;SDS011;54366;51.980;5.856;2022-08-18T14:34:04;3.55;;;3.25;;
67528;SDS011;54366;51.980;5.856;2022-08-18T14:36:31;3.50;;;3.22;;
67528;SDS011;54366;51.980;5.856;2022-08-18T14:39:00;3.55;;;2.90;;
67528;SDS011;54366;51.980;5.856;2022-08-18T14:41:28;3.38;;;3.08;;
67528;SDS011;54366;51.980;5.856;2022-08-18T14:43:55;3.42;;;3.13;;
67528;SDS011;54366;51.980;5.856;2022-08-18T14:46:23;3.22;;;2.97;;
67528;SDS011;54366;51.980;5.856;2022-08-18T14:48:49;2.90;;;2.70;;
67528;SDS011;54366;51.980;5.856;2022-08-18T14:51:15;2.70;;;2.58;;
67528;SDS011;54366;51.980;5.856;2022-08-18T14:53:41;2.90;;;2.70;;
67528;SDS011;54366;51.980;5.856;2022-08-18T14:56:08;3.00;;;2.80;;
67528;SDS011;54366;51.980;5.856;2022-08-18T14:58:37;4.47;;;2.60;;
67528;SDS011;54366;51.980;5.856;2022-08-18T15:01:06;2.90;;;2.70;;
67528;SDS011;54366;51.980;5.856;2022-08-18T15:03:35;3.30;;;3.00;;
67528;SDS011;54366;51.980;5.856;2022-08-18T15:06:03;2.58;;;2.38;;
67528;SDS011;54366;51.980;5.856;2022-08-18T15:08:30;2.28;;;2.08;;
67528;SDS011;54366;51.980;5.856;2022-08-18T15:11:02;3.05;;;2.85;;
67528;SDS011;54366;51.980;5.856;2022-08-18T15:13:30;3.10;;;2.90;;
67528;SDS011;54366;51.980;5.856;2022-08-18T15:15:58;3.28;;;2.97;;
67528;SDS011;54366;51.980;5.856;2022-08-18T15:18:24;3.15;;;2.80;;
67528;SDS011;54366;51.980;5.856;2022-08-18T15:20:51;4.05;;;2.92;;
67528;SDS011;54366;51.980;5.856;2022-08-18T15:23:35;2.55;;;2.35;;
67528;SDS011;54366;51.980;5.856;2022-08-18T15:26:21;3.90;;;3.10;;
67528;SDS011;54366;51.980;5.856;2022-08-18T15:28:50;3.08;;;2.80;;
67528;SDS011;54366;51.980;5.856;2022-08-18T15:31:17;2.65;;;2.35;;
67528;SDS011;54366;51.980;5.856;2022-08-18T15:33:43;2.00;;;1.90;;
67528;SDS011;54366;51.980;5.856;2022-08-18T15:36:09;2.97;;;2.60;;
67528;SDS011;54366;51.980;5.856;2022-08-18T15:38:35;2.65;;;2.40;;
67528;SDS011;54366;51.980;5.856;2022-08-18T15:41:02;2.90;;;2.70;;
67528;SDS011;54366;51.980;5.856;2022-08-18T15:43:30;3.00;;;2.80;;
67528;SDS011;54366;51.980;5.856;2022-08-18T15:45:57;3.00;;;2.80;;
67528;SDS011;54366;51.980;5.856;2022-08-18T15:48:25;3.35;;;2.88;;
67528;SDS011;54366;51.980;5.856;2022-08-18T15:50:53;2.67;;;2.50;;
67528;SDS011;54366;51.980;5.856;2022-08-18T15:53:20;2.38;;;2.17;;
67528;SDS011;54366;51.980;5.856;2022-08-18T15:55:48;2.65;;;2.47;;
67528;SDS011;54366;51.980;5.856;2022-08-18T15:58:14;2.72;;;2.53;;
67528;SDS011;54366;51.980;5.856;2022-08-18T16:00:42;2.50;;;2.40;;
67528;SDS011;54366;51.980;5.856;2022-08-18T16:03:10;2.20;;;2.10;;
67528;SDS011;54366;51.980;5.856;2022-08-18T16:05:41;2.50;;;2.22;;
67528;SDS011;54366;51.980;5.856;2022-08-18T16:08:18;2.90;;;2.55;;
67528;SDS011;54366;51.980;5.856;2022-08-18T16:10:46;3.63;;;3.28;;
67528;SDS011;54366;51.980;5.856;2022-08-18T16:13:12;2.30;;;2.20;;
67528;SDS011;54366;51.980;5.856;2022-08-18T16:15:40;2.30;;;2.10;;
67528;SDS011;54366;51.980;5.856;2022-08-18T16:18:08;2.20;;;2.10;;
67528;SDS011;54366;51.980;5.856;2022-08-18T16:20:35;2.63;;;1.80;;
67528;SDS011;54366;51.980;5.856;2022-08-18T16:23:03;1.90;;;1.80;;
67528;SDS011;54366;51.980;5.856;2022-08-18T16:25:30;2.08;;;1.90;;
67528;SDS011;54366;51.980;5.856;2022-08-18T16:27:59;2.17;;;2.08;;
67528;SDS011;54366;51.980;5.856;2022-08-18T16:30:26;2.42;;;2.22;;
67528;SDS011;54366;51.980;5.856;2022-08-18T16:32:54;2.50;;;2.30;;
67528;SDS011;54366;51.980;5.856;2022-08-18T16:35:25;2.30;;;2.20;;
67528;SDS011;54366;51.980;5.856;2022-08-18T16:37:52;3.08;;;2.20;;
67528;SDS011;54366;51.980;5.856;2022-08-18T16:40:18;2.80;;;2.47;;
67528;SDS011;54366;51.980;5.856;2022-08-18T16:42:45;2.38;;;2.17;;
67528;SDS011;54366;51.980;5.856;2022-08-18T16:45:12;2.30;;;2.10;;
67528;SDS011;54366;51.980;5.856;2022-08-18T16:47:39;2.50;;;2.30;;
67528;SDS011;54366;51.980;5.856;2022-08-18T16:50:10;2.85;;;2.65;;
67528;SDS011;54366;51.980;5.856;2022-08-18T16:52:38;2.10;;;2.00;;
67528;SDS011;54366;51.980;5.856;2022-08-18T16:55:05;2.00;;;1.90;;
67528;SDS011;54366;51.980;5.856;2022-08-18T16:57:33;1.70;;;1.60;;
67528;SDS011;54366;51.980;5.856;2022-08-18T17:00:25;1.90;;;1.80;;
67528;SDS011;54366;51.980;5.856;2022-08-18T17:03:12;2.20;;;2.00;;
67528;SDS011;54366;51.980;5.856;2022-08-18T17:05:57;2.30;;;1.90;;
67528;SDS011;54366;51.980;5.856;2022-08-18T17:08:25;2.38;;;2.17;;
67528;SDS011;54366;51.980;5.856;2022-08-18T17:10:52;1.70;;;1.60;;
67528;SDS011;54366;51.980;5.856;2022-08-18T17:13:19;2.10;;;1.80;;
67528;SDS011;54366;51.980;5.856;2022-08-18T17:15:47;1.73;;;1.63;;
67528;SDS011;54366;51.980;5.856;2022-08-18T17:18:14;2.38;;;2.20;;
67528;SDS011;54366;51.980;5.856;2022-08-18T17:20:40;3.28;;;1.88;;
67528;SDS011;54366;51.980;5.856;2022-08-18T17:23:07;2.33;;;2.22;;
67528;SDS011;54366;51.980;5.856;2022-08-18T17:25:33;2.20;;;1.85;;
67528;SDS011;54366;51.980;5.856;2022-08-18T17:28:01;2.40;;;2.20;;
67528;SDS011;54366;51.980;5.856;2022-08-18T17:30:29;2.28;;;1.92;;
67528;SDS011;54366;51.980;5.856;2022-08-18T17:33:19;1.80;;;1.70;;
67528;SDS011;54366;51.980;5.856;2022-08-18T17:35:47;2.58;;;2.28;;
67528;SDS011;54366;51.980;5.856;2022-08-18T17:38:22;2.28;;;1.98;;
67528;SDS011;54366;51.980;5.856;2022-08-18T17:40:59;2.35;;;2.10;;
67528;SDS011;54366;51.980;5.856;2022-08-18T17:43:34;2.28;;;2.08;;
67528;SDS011;54366;51.980;5.856;2022-08-18T17:46:07;1.90;;;1.80;;
67528;SDS011;54366;51.980;5.856;2022-08-18T17:51:29;2.75;;;2.08;;